Aviation Digital Data Service (ADDS)

Output produced by METARs form (0007 UTC 24 May 2022)
found at http://www.aviationweather.gov/metar/data/
 
TAF TNCA 232317Z 2400/2424 09022KT 9999 SCT020